Time;durP1;ratioP1;P1;durP2;ratioP2;P2;SDS_P1;SDS_P2;PMS_P1;PMS_P2;Temp;Humidity;BMP_temperature;BMP_pressure;BME280_temperature;BME280_humidity;BME280_pressure;Samples;Min_cycle;Max_cycle;Signal;HPM_P1;HPM_P2
2023/05/21 00:02:14;;;;;;;;;16.67;16.33;;;;;16.27;67.22;101512.00;5033828;28;45363;-68
2023/05/21 00:04:40;;;;;;;;;17.67;17.00;;;;;16.28;66.74;101512.88;5034369;28;45515;-67
2023/05/21 00:07:08;;;;;;;;;33.33;28.33;;;;;16.30;66.71;101527.00;5034207;28;45410;-67
2023/05/21 00:09:37;;;;;;;;;22.33;17.33;;;;;16.26;67.74;101526.22;5033414;28;45610;-67
2023/05/21 00:12:06;;;;;;;;;15.00;15.00;;;;;16.16;67.07;101511.50;5034070;28;45340;-67
2023/05/21 00:14:31;;;;;;;;;18.67;15.33;;;;;16.14;67.30;101508.03;5034204;27;45403;-67
2023/05/21 00:16:57;;;;;;;;;15.33;15.33;;;;;16.16;67.40;101523.03;5034176;28;45302;-67
2023/05/21 00:19:22;;;;;;;;;16.33;13.67;;;;;16.13;67.86;101515.13;5033724;28;46432;-67
2023/05/21 00:21:48;;;;;;;;;26.33;21.33;;;;;16.07;67.96;101506.50;5033834;28;45268;-67
2023/05/21 00:24:14;;;;;;;;;21.67;18.00;;;;;16.10;67.95;101512.56;5033891;27;45320;-68
2023/05/21 00:26:39;;;;;;;;;23.33;21.00;;;;;15.88;67.88;101479.69;5033984;28;45654;-68
2023/05/21 00:29:05;;;;;;;;;19.33;19.00;;;;;16.00;68.07;101505.84;5033551;28;45378;-68
2023/05/21 00:31:31;;;;;;;;;20.33;18.00;;;;;15.96;68.00;101496.22;5033771;28;45269;-68
2023/05/21 00:33:56;;;;;;;;;20.00;19.00;;;;;16.00;67.96;101512.03;5033758;28;45386;-68
2023/05/21 00:36:22;;;;;;;;;23.33;21.33;;;;;15.99;68.29;101504.97;5034055;28;45245;-68
2023/05/21 00:38:49;;;;;;;;;20.33;19.00;;;;;15.87;68.01;101488.56;5033118;28;47471;-68
2023/05/21 00:41:15;;;;;;;;;25.33;18.67;;;;;15.91;68.56;101495.53;5033446;28;45289;-68
2023/05/21 00:43:41;;;;;;;;;23.33;20.00;;;;;15.90;68.85;101504.41;5033579;28;45525;-68
2023/05/21 00:46:10;;;;;;;;;24.33;20.00;;;;;15.80;68.83;101482.59;5033448;27;45473;-68
2023/05/21 00:48:36;;;;;;;;;24.00;22.00;;;;;15.79;68.61;101481.72;5034196;27;47283;-68
2023/05/21 00:51:02;;;;;;;;;21.00;19.67;;;;;15.78;69.03;101487.94;5036554;27;45445;-68
2023/05/21 00:53:28;;;;;;;;;30.33;28.00;;;;;15.81;68.98;101494.94;5036606;27;45663;-68
2023/05/21 00:55:54;;;;;;;;;21.67;21.67;;;;;15.75;69.29;101490.69;5036921;27;45305;-67
2023/05/21 00:58:20;;;;;;;;;18.67;18.67;;;;;15.75;68.79;101490.69;5036339;27;46341;-67
2023/05/21 01:00:45;;;;;;;;;24.67;21.00;;;;;15.75;68.69;101496.00;5036434;28;45308;-68
2023/05/21 01:03:11;;;;;;;;;22.33;20.67;;;;;15.76;68.76;101499.53;5036766;28;45356;-68
2023/05/21 01:05:36;;;;;;;;;22.67;22.33;;;;;15.62;69.04;101487.53;5036640;28;45299;-67
2023/05/21 01:08:03;;;;;;;;;21.00;19.00;;;;;15.66;69.72;101494.50;5036285;28;47292;-68
2023/05/21 01:10:29;;;;;;;;;18.33;15.33;;;;;15.62;69.38;101490.19;5036296;28;45252;-68
2023/05/21 01:12:57;;;;;;;;;24.33;22.67;;;;;15.67;69.56;101504.22;5036393;28;45220;-69
2023/05/21 01:15:23;;;;;;;;;26.67;23.33;;;;;15.56;69.65;101487.75;5036482;27;45384;-69
2023/05/21 01:17:50;;;;;;;;;24.33;23.00;;;;;15.55;69.58;101493.97;5036275;28;45591;-67
2023/05/21 01:20:17;;;;;;;;;26.33;26.00;;;;;15.56;69.95;101489.53;5036130;28;45338;-67
2023/05/21 01:22:54;;;;;;;;;20.67;20.67;;;;;15.44;69.51;101494.31;5036028;28;45322;-69
2023/05/21 01:25:21;;;;;;;;;23.33;22.33;;;;;15.45;70.02;101505.78;5036549;27;45395;-69
2023/05/21 01:27:47;;;;;;;;;24.33;24.00;;;;;15.47;70.28;101502.19;5036064;27;46478;-70
2023/05/21 01:30:13;;;;;;;;;25.00;23.67;;;;;15.47;70.27;101502.19;5036201;28;45364;-69
2023/05/21 01:32:50;;;;;;;;;26.33;25.00;;;;;15.39;70.00;101492.72;5036215;27;45278;-69
2023/05/21 01:35:30;;;;;;;;;28.67;27.33;;;;;15.37;70.65;101499.88;5036186;28;45401;-67
2023/05/21 01:38:08;;;;;;;;;28.33;24.00;;;;;15.42;70.26;101503.22;5035732;28;47427;-67
2023/05/21 01:41:02;;;;;;;;;25.00;22.67;;;;;15.29;70.09;101479.75;5036071;28;45414;-67
2023/05/21 01:43:32;;;;;;;;;24.33;23.00;;;;;15.36;70.19;101495.47;5036184;27;45285;-67
2023/05/21 01:45:59;;;;;;;;;27.67;26.00;;;;;15.39;70.37;101500.69;5035670;27;45377;-69
2023/05/21 01:48:27;;;;;;;;;31.00;29.00;;;;;15.38;70.58;101501.59;5035812;28;45508;-69
2023/05/21 01:50:54;;;;;;;;;32.67;27.33;;;;;15.32;71.03;101498.22;5035928;28;45208;-69
2023/05/21 01:53:20;;;;;;;;;26.67;25.00;;;;;15.19;70.67;101467.69;5035764;27;45377;-69
2023/05/21 01:55:47;;;;;;;;;28.67;27.67;;;;;15.24;71.06;101479.00;5036139;27;45313;-67
2023/05/21 01:58:14;;;;;;;;;29.33;27.00;;;;;15.27;71.29;101493.97;5035517;27;46578;-67
2023/05/21 02:00:40;;;;;;;;;27.67;26.67;;;;;15.19;71.58;101485.34;5034794;28;45426;-67
2023/05/21 02:03:06;;;;;;;;;30.00;27.67;;;;;15.21;71.42;101495.00;5036060;28;45288;-67
2023/05/21 02:05:32;;;;;;;;;28.00;28.00;;;;;15.17;71.48;101495.16;5035935;27;45290;-67
2023/05/21 02:07:58;;;;;;;;;24.00;23.33;;;;;15.06;71.31;101484.84;5035334;28;46104;-67
2023/05/21 02:10:24;;;;;;;;;34.00;28.67;;;;;15.13;71.38;101489.06;5035503;28;45378;-67
2023/05/21 02:12:50;;;;;;;;;33.67;29.00;;;;;15.00;72.00;101475.28;5035567;28;45471;-67
2023/05/21 02:15:17;;;;;;;;;28.67;28.67;;;;;15.08;71.69;101489.22;5035727;28;45415;-67
2023/05/21 02:17:43;;;;;;;;;28.00;27.67;;;;;15.08;71.62;101491.00;5035442;28;46605;-67
2023/05/21 02:20:13;;;;;;;;;32.67;28.00;;;;;15.07;72.04;101498.06;5035394;28;45700;-67
2023/05/21 02:22:43;;;;;;;;;35.33;30.00;;;;;15.02;71.82;101497.34;5035564;28;45433;-67
2023/05/21 02:25:10;;;;;;;;;28.67;28.67;;;;;14.97;71.86;101486.88;5035662;27;45523;-67
2023/05/21 02:27:36;;;;;;;;;27.00;27.00;;;;;15.04;72.21;101499.97;5035055;28;46725;-67
2023/05/21 02:30:04;;;;;;;;;34.00;29.67;;;;;14.94;72.35;101483.44;5035352;28;45457;-67
2023/05/21 02:32:32;;;;;;;;;35.33;33.00;;;;;14.98;72.26;101499.22;5035392;27;45295;-67
2023/05/21 02:34:58;;;;;;;;;32.33;28.33;;;;;14.97;72.29;101496.59;5035784;27;45477;-67
2023/05/21 02:37:26;;;;;;;;;31.33;28.00;;;;;14.93;72.00;101489.69;5035347;27;45998;-67
2023/05/21 02:39:54;;;;;;;;;31.00;29.00;;;;;15.01;72.63;101505.34;5035125;27;45237;-67
2023/05/21 02:42:23;;;;;;;;;30.67;27.33;;;;;14.97;72.52;101499.25;5035401;28;45337;-67
2023/05/21 02:44:52;;;;;;;;;33.33;30.00;;;;;14.99;72.41;101494.78;5035246;28;45387;-67
2023/05/21 02:47:18;;;;;;;;;29.67;29.00;;;;;14.89;72.50;101478.28;5034837;27;46294;-67
2023/05/21 02:49:44;;;;;;;;;32.00;29.33;;;;;14.94;72.09;101497.59;5035248;28;45327;-67
2023/05/21 02:52:10;;;;;;;;;31.67;30.00;;;;;14.91;72.22;101489.69;5035186;28;45383;-67
2023/05/21 02:54:35;;;;;;;;;35.33;31.00;;;;;14.97;72.09;101493.94;5035389;28;45410;-67
2023/05/21 02:57:01;;;;;;;;;29.00;29.00;;;;;14.89;72.01;101480.91;5034698;28;46263;-67
2023/05/21 02:59:26;;;;;;;;;33.33;32.00;;;;;14.88;72.39;101484.47;5034886;28;45400;-66
2023/05/21 03:01:51;;;;;;;;;26.67;25.33;;;;;14.97;72.38;101496.59;5035225;28;45452;-66
2023/05/21 03:04:17;;;;;;;;;33.00;28.33;;;;;14.95;72.07;101501.09;5035105;28;45756;-66
2023/05/21 03:06:43;;;;;;;;;31.67;29.00;;;;;14.93;72.25;101495.84;5034819;28;46458;-66
2023/05/21 03:09:09;;;;;;;;;35.00;32.00;;;;;14.94;71.91;101502.88;5034766;27;45362;-66
2023/05/21 03:11:35;;;;;;;;;36.00;32.00;;;;;14.90;72.04;101506.53;5034301;27;45378;-66
2023/05/21 03:14:00;;;;;;;;;32.33;29.00;;;;;14.86;71.72;101493.41;5034841;27;45306;-67
2023/05/21 03:16:27;;;;;;;;;31.33;28.33;;;;;14.90;72.25;101495.94;5034788;28;46346;-66
2023/05/21 03:18:53;;;;;;;;;31.67;29.33;;;;;14.87;71.91;101489.81;5036037;27;45448;-66
2023/05/21 03:21:21;;;;;;;;;34.33;29.67;;;;;14.86;71.69;101496.06;5035005;27;45391;-66
2023/05/21 03:23:47;;;;;;;;;34.00;31.00;;;;;14.85;71.74;101489.88;5034975;28;45473;-66
2023/05/21 03:26:12;;;;;;;;;28.00;27.00;;;;;14.86;71.83;101493.41;5034699;28;45423;-66
2023/05/21 03:28:38;;;;;;;;;31.00;28.00;;;;;14.87;71.87;101495.13;5034468;28;45316;-66
2023/05/21 03:31:03;;;;;;;;;34.33;31.33;;;;;14.85;72.13;101494.31;5034600;27;45744;-66
2023/05/21 03:33:29;;;;;;;;;34.33;30.33;;;;;14.87;71.98;101496.03;5034823;28;45375;-66
2023/05/21 03:35:54;;;;;;;;;30.00;28.00;;;;;14.89;72.02;101502.13;5034472;28;46361;-66
2023/05/21 03:38:20;;;;;;;;;31.33;30.33;;;;;14.83;72.16;101494.38;5034471;27;45363;-66
2023/05/21 03:40:45;;;;;;;;;32.00;28.33;;;;;14.82;71.66;101499.72;5034564;28;45430;-66
2023/05/21 03:43:10;;;;;;;;;33.00;30.67;;;;;14.78;71.72;101497.16;5034700;28;45303;-66
2023/05/21 03:45:36;;;;;;;;;31.00;27.67;;;;;14.78;72.00;101507.75;5034139;27;47201;-67
2023/05/21 03:48:01;;;;;;;;;27.33;26.33;;;;;14.78;71.83;101504.22;5034415;27;45234;-66
2023/05/21 03:50:26;;;;;;;;;34.33;30.67;;;;;14.67;71.76;101495.69;5034427;28;45242;-67
2023/05/21 03:52:52;;;;;;;;;31.33;29.00;;;;;14.58;71.90;101484.41;5034597;27;45320;-67
2023/05/21 03:55:17;;;;;;;;;42.00;35.00;;;;;14.70;72.15;101511.53;5033936;28;45229;-66
2023/05/21 03:57:42;;;;;;;;;28.67;28.67;;;;;14.76;71.68;101512.22;5034263;28;45389;-66
2023/05/21 04:00:08;;;;;;;;;33.33;28.33;;;;;14.71;72.08;101500.88;5034084;28;45878;-67
2023/05/21 04:02:34;;;;;;;;;39.00;31.67;;;;;14.72;71.68;101510.56;5034581;27;45380;-67
2023/05/21 04:04:59;;;;;;;;;37.67;35.00;;;;;14.70;71.97;101508.88;5016044;27;46090;-67
2023/05/21 04:07:26;;;;;;;;;38.67;34.67;;;;;14.73;72.10;101508.78;5033957;28;45332;-67
2023/05/21 04:09:51;;;;;;;;;37.67;33.00;;;;;14.71;72.07;101508.84;5033951;28;45496;-67
2023/05/21 04:12:18;;;;;;;;;32.00;30.33;;;;;14.63;72.00;101498.44;5034209;28;45388;-68
2023/05/21 04:14:45;;;;;;;;;31.00;27.00;;;;;14.72;71.73;101515.84;5033882;27;47232;-69
2023/05/21 04:17:11;;;;;;;;;30.67;30.00;;;;;14.72;71.60;101507.06;5033912;28;45422;-69
2023/05/21 04:19:37;;;;;;;;;33.00;30.33;;;;;14.70;71.70;101511.53;5033567;28;45310;-69
2023/05/21 04:22:03;;;;;;;;;35.33;31.33;;;;;14.65;71.89;101505.47;5034088;28;45206;-69
2023/05/21 04:24:29;;;;;;;;;32.00;29.33;;;;;14.65;71.70;101506.34;5035392;28;46088;-67
2023/05/21 04:26:54;;;;;;;;;31.33;27.67;;;;;14.69;71.85;101517.75;5036637;28;45422;-66
2023/05/21 04:29:20;;;;;;;;;30.00;29.33;;;;;14.68;71.73;101519.53;5036894;27;45553;-67
2023/05/21 04:31:48;;;;;;;;;31.00;29.33;;;;;14.69;71.41;101515.09;5037085;27;45514;-66
2023/05/21 04:34:17;;;;;;;;;34.67;31.00;;;;;14.73;71.63;101512.31;5036884;28;45693;-66
2023/05/21 04:36:44;;;;;;;;;29.67;28.67;;;;;14.74;71.29;101505.22;5036781;27;45208;-66
2023/05/21 04:39:11;;;;;;;;;36.67;32.33;;;;;14.84;71.10;101516.44;5036593;27;45359;-66
2023/05/21 04:41:37;;;;;;;;;30.33;29.33;;;;;14.82;70.99;101511.19;5036763;28;45520;-67
2023/05/21 04:44:02;;;;;;;;;35.67;32.67;;;;;14.89;70.77;101520.69;5036533;28;45922;-67
2023/05/21 04:46:29;;;;;;;;;32.00;29.67;;;;;14.87;70.61;101511.94;5036392;27;45332;-67
2023/05/21 04:48:55;;;;;;;;;34.67;31.00;;;;;14.94;70.28;101515.25;5036650;28;45174;-67
2023/05/21 04:51:25;;;;;;;;;34.67;30.67;;;;;14.93;70.10;101511.75;5036638;27;45435;-67
2023/05/21 04:53:50;;;;;;;;;39.33;33.33;;;;;14.91;70.53;101518.84;5035856;28;45702;-67
2023/05/21 04:56:18;;;;;;;;;36.33;31.00;;;;;14.93;71.02;101518.84;5036432;28;45360;-67
2023/05/21 04:58:48;;;;;;;;;34.67;33.33;;;;;14.93;70.20;101521.50;5036561;28;45175;-67
2023/05/21 05:01:14;;;;;;;;;39.00;33.67;;;;;14.92;70.53;101512.66;5036784;27;45364;-67
2023/05/21 05:03:39;;;;;;;;;35.67;33.00;;;;;15.05;70.46;101530.88;5036266;28;46373;-67
2023/05/21 05:06:06;;;;;;;;;43.67;35.33;;;;;15.08;70.15;101517.53;5036088;28;45309;-67
2023/05/21 05:08:31;;;;;;;;;36.33;31.67;;;;;15.12;69.88;101519.19;5036610;27;45319;-67
2023/05/21 05:10:57;;;;;;;;;33.67;29.33;;;;;14.91;69.52;101487.03;5036417;28;45457;-66
2023/05/21 05:13:22;;;;;;;;;34.00;31.67;;;;;15.11;70.07;101517.44;5036448;27;46373;-67
2023/05/21 05:15:47;;;;;;;;;38.67;33.33;;;;;15.17;69.37;101525.19;5036265;27;45315;-67
2023/05/21 05:18:13;;;;;;;;;41.00;36.33;;;;;15.23;69.58;101524.16;5036542;28;45331;-66
2023/05/21 05:20:39;;;;;;;;;38.33;34.67;;;;;15.23;69.51;101522.34;5036492;28;45323;-67
2023/05/21 05:23:04;;;;;;;;;39.67;34.67;;;;;15.26;69.84;101514.34;5036188;28;45835;-67
2023/05/21 05:25:30;;;;;;;;;35.67;34.33;;;;;15.31;68.96;101515.03;5036104;27;45273;-67
2023/05/21 05:27:55;;;;;;;;;40.00;34.00;;;;;15.35;69.03;101504.34;5036218;28;45647;-67
2023/05/21 05:30:20;;;;;;;;;34.67;32.67;;;;;15.41;69.24;101504.13;5036672;27;45320;-67
2023/05/21 05:32:46;;;;;;;;;39.67;34.67;;;;;15.54;68.98;101510.84;5035827;28;45423;-67
2023/05/21 05:35:11;;;;;;;;;42.00;35.67;;;;;15.63;68.19;101515.84;5035123;28;45487;-67
2023/05/21 05:37:37;;;;;;;;;39.33;35.67;;;;;15.71;68.49;101506.75;5036277;28;45212;-67
2023/05/21 05:40:04;;;;;;;;;35.00;33.67;;;;;15.74;67.98;101502.25;5025222;28;45599;-66
2023/05/21 05:42:29;;;;;;;;;34.67;32.33;;;;;15.83;67.69;101501.09;5026970;28;46222;-66
2023/05/21 05:44:54;;;;;;;;;44.33;37.00;;;;;15.85;67.88;101507.22;5015628;28;45386;-66
2023/05/21 05:47:20;;;;;;;;;41.67;36.67;;;;;15.97;67.49;101514.78;5016198;27;45509;-67
2023/05/21 05:49:46;;;;;;;;;40.00;36.00;;;;;16.14;66.97;101516.00;5016066;27;45505;-66
2023/05/21 05:52:11;;;;;;;;;43.00;35.67;;;;;16.34;65.95;101465.69;5015741;28;46295;-67
2023/05/21 05:54:37;;;;;;;;;44.67;36.33;;;;;16.73;65.00;101498.00;5015770;28;45160;-66
2023/05/21 05:57:02;;;;;;;;;37.00;34.00;;;;;16.77;64.37;101494.31;5015939;27;45463;-67
2023/05/21 05:59:28;;;;;;;;;36.33;34.67;;;;;17.10;63.82;101499.34;5015992;28;45506;-67
2023/05/21 06:01:53;;;;;;;;;36.33;32.67;;;;;17.13;63.53;101499.22;5015839;27;46819;-67
2023/05/21 06:04:18;;;;;;;;;37.33;33.67;;;;;17.11;63.62;101498.41;5015837;27;45426;-69
2023/05/21 06:06:44;;;;;;;;;24.33;24.33;;;;;17.20;63.43;101496.25;5016107;27;45698;-69
2023/05/21 06:09:10;;;;;;;;;35.67;32.00;;;;;17.16;63.17;101493.78;5015929;28;45241;-69
2023/05/21 06:11:36;;;;;;;;;30.00;29.33;;;;;17.19;63.40;101497.22;5015481;27;45709;-67
2023/05/21 06:14:01;;;;;;;;;35.67;30.33;;;;;17.29;63.24;101500.34;5015529;28;45480;-67
2023/05/21 06:16:30;;;;;;;;;31.33;31.33;;;;;17.20;63.12;101484.75;5015709;28;45205;-67
2023/05/21 06:18:55;;;;;;;;;34.67;30.67;;;;;17.26;63.13;101489.84;5016008;27;45466;-67
2023/05/21 06:21:20;;;;;;;;;29.50;29.50;;;;;17.33;63.03;101499.31;5015527;27;46205;-67
2023/05/21 06:23:46;;;;;;;;;40.67;34.00;;;;;17.29;63.31;101488.84;5015665;28;45438;-66
2023/05/21 06:26:11;;;;;;;;;30.00;30.00;;;;;17.35;62.51;101505.44;5015339;28;45402;-66
2023/05/21 06:28:36;;;;;;;;;28.00;28.00;;;;;17.36;62.84;101504.53;5015899;27;45442;-66
2023/05/21 06:31:02;;;;;;;;;34.00;29.00;;;;;17.33;62.75;101494.00;5015689;28;46240;-66
2023/05/21 06:33:27;;;;;;;;;30.33;26.33;;;;;17.37;62.97;101503.59;5015487;28;45403;-66
2023/05/21 06:35:52;;;;;;;;;34.00;32.33;;;;;17.34;62.83;101487.75;5015681;28;45370;-66
2023/05/21 06:38:18;;;;;;;;;33.67;29.00;;;;;17.38;63.41;101489.38;5015768;27;45380;-66
2023/05/21 06:40:46;;;;;;;;;31.00;29.33;;;;;17.48;62.66;101494.31;5015016;27;46179;-66
2023/05/21 06:43:12;;;;;;;;;30.67;27.33;;;;;17.55;62.86;101499.31;5015202;28;45286;-66
2023/05/21 06:45:37;;;;;;;;;31.33;25.67;;;;;17.62;62.36;101499.09;5015333;27;45450;-65
2023/05/21 06:48:03;;;;;;;;;30.00;27.33;;;;;17.66;62.36;101495.38;5015522;28;45269;-68
2023/05/21 06:50:28;;;;;;;;;30.67;28.33;;;;;17.67;62.70;101487.31;5015324;27;45989;-68
2023/05/21 06:52:53;;;;;;;;;29.67;25.33;;;;;17.81;61.73;101501.88;5014837;28;45527;-69
2023/05/21 06:55:19;;;;;;;;;26.33;25.00;;;;;17.81;62.13;101499.22;5015414;27;45373;-66
2023/05/21 06:57:44;;;;;;;;;21.67;20.67;;;;;17.89;61.54;101497.97;5015285;27;45574;-66
2023/05/21 07:00:11;;;;;;;;;23.33;23.33;;;;;17.90;61.76;101494.38;5014685;28;46123;-66
2023/05/21 07:02:36;;;;;;;;;24.67;21.33;;;;;18.14;61.37;101501.41;5015119;27;45399;-66
2023/05/21 07:05:01;;;;;;;;;21.33;19.00;;;;;18.35;60.37;101494.31;5015058;27;45364;-66
2023/05/21 07:07:27;;;;;;;;;26.33;23.33;;;;;18.65;59.61;101516.09;5015498;28;45308;-66
2023/05/21 07:09:52;;;;;;;;;29.33;25.00;;;;;18.75;59.60;101511.25;5014425;28;45250;-67
2023/05/21 07:12:17;;;;;;;;;20.67;20.33;;;;;18.92;59.07;101513.16;5014730;28;45389;-65
2023/05/21 07:14:43;;;;;;;;;24.33;21.33;;;;;19.19;58.20;101513.69;5015051;28;45313;-65
2023/05/21 07:17:08;;;;;;;;;17.00;13.33;;;;;19.42;57.32;101501.91;5015228;28;45276;-66
2023/05/21 07:19:33;;;;;;;;;28.00;23.33;;;;;19.64;56.38;101492.88;5014596;28;45983;-65
2023/05/21 07:21:58;;;;;;;;;22.67;21.00;;;;;19.56;56.45;101500.38;5014925;27;45380;-67
2023/05/21 07:24:26;;;;;;;;;24.67;21.33;;;;;19.45;56.43;101504.44;5014911;28;45230;-64
2023/05/21 07:26:51;;;;;;;;;18.67;18.33;;;;;19.34;56.99;101488.06;5014863;27;45413;-64
2023/05/21 07:29:17;;;;;;;;;21.67;19.00;;;;;19.28;56.95;101489.22;5014457;28;46236;-66
2023/05/21 07:31:42;;;;;;;;;20.67;20.67;;;;;19.19;57.77;101488.81;5014753;27;45387;-66
2023/05/21 07:34:07;;;;;;;;;20.67;19.00;;;;;19.22;57.15;101505.53;5014905;27;45485;-64
2023/05/21 07:36:33;;;;;;;;;21.33;20.33;;;;;19.19;57.20;101502.16;5015127;27;45329;-66
2023/05/21 07:38:58;;;;;;;;;22.67;22.67;;;;;19.44;57.15;101499.19;5014449;28;45662;-66
2023/05/21 07:41:23;;;;;;;;;16.33;16.33;;;;;19.54;56.38;101491.59;5014453;28;45278;-66
2023/05/21 07:43:49;;;;;;;;;12.00;12.00;;;;;19.52;56.38;101491.66;5014829;27;45314;-67
2023/05/21 07:46:14;;;;;;;;;16.00;14.00;;;;;19.51;55.76;101487.25;5014547;27;45409;-67
2023/05/21 07:48:40;;;;;;;;;16.33;14.67;;;;;19.52;55.76;101488.13;5014600;28;45604;-67
2023/05/21 07:51:06;;;;;;;;;23.33;17.33;;;;;19.52;55.75;101480.97;5014429;28;45308;-67
2023/05/21 07:53:32;;;;;;;;;21.67;18.33;;;;;19.62;55.47;101476.91;5014756;27;45321;-67
2023/05/21 07:55:58;;;;;;;;;14.33;14.33;;;;;19.65;55.80;101475.91;5014724;28;45515;-67
2023/05/21 07:58:23;;;;;;;;;20.67;18.33;;;;;19.76;55.29;101486.91;5013343;28;46717;-66
2023/05/21 08:00:49;;;;;;;;;17.00;14.00;;;;;19.80;54.84;101474.31;5013978;28;45209;-67
2023/05/21 08:03:16;;;;;;;;;13.67;12.67;;;;;20.02;54.41;101479.44;5014417;28;45324;-67
2023/05/21 08:05:49;;;;;;;;;21.00;16.00;;;;;19.97;54.79;101470.78;5014597;28;45507;-66
2023/05/21 08:08:18;;;;;;;;;17.00;16.00;;;;;20.04;54.10;101474.88;5013680;28;46745;-67
2023/05/21 08:10:45;;;;;;;;;15.33;15.33;;;;;20.26;53.85;101474.66;5013723;28;45414;-67
2023/05/21 08:13:11;;;;;;;;;18.67;15.00;;;;;20.78;52.50;101468.38;5014439;27;45370;-66
2023/05/21 08:15:36;;;;;;;;;15.33;13.00;;;;;22.00;51.17;101472.25;5014584;27;45496;-66
2023/05/21 08:18:02;;;;;;;;;12.67;12.67;;;;;23.39;47.43;101470.88;5013087;27;45438;-68
2023/05/21 08:20:29;;;;;;;;;13.67;13.00;;;;;23.96;45.28;101465.28;5013511;28;45371;-66
2023/05/21 08:22:55;;;;;;;;;18.00;17.33;;;;;23.81;45.96;101451.00;5014110;28;45209;-74
2023/05/21 08:25:20;;;;;;;;;16.00;13.33;;;;;23.82;45.96;101459.94;5014104;28;45371;-71
2023/05/21 08:27:46;;;;;;;;;15.67;11.67;;;;;23.54;47.51;101451.03;5014445;27;46692;-65
2023/05/21 08:30:12;;;;;;;;;19.33;14.00;;;;;23.54;46.03;101475.25;5014172;27;45220;-67
2023/05/21 08:32:37;;;;;;;;;12.33;12.33;;;;;23.35;46.92;101483.63;5014156;28;45296;-69
2023/05/21 08:35:03;;;;;;;;;15.33;14.67;;;;;23.01;46.00;101464.28;5013889;28;45629;-70
2023/05/21 08:37:28;;;;;;;;;12.33;12.33;;;;;22.81;47.57;101472.75;5013761;28;46926;-68
2023/05/21 08:39:53;;;;;;;;;13.67;12.67;;;;;22.43;47.78;101437.44;5013738;28;45351;-66
2023/05/21 08:42:27;;;;;;;;;15.67;15.33;;;;;22.41;48.19;101462.69;5013836;28;45471;-68
2023/05/21 08:44:58;;;;;;;;;17.67;17.00;;;;;22.46;47.84;101460.56;5013866;27;45370;-67
2023/05/21 08:47:26;;;;;;;;;15.67;15.67;;;;;22.71;47.15;101476.03;5013475;27;46230;-70
2023/05/21 08:49:53;;;;;;;;;10.67;10.67;;;;;22.64;46.46;101479.16;5013546;28;45325;-68
2023/05/21 08:52:18;;;;;;;;;12.67;11.00;;;;;22.52;46.50;101475.41;5013722;28;45342;-67
2023/05/21 08:54:45;;;;;;;;;11.67;10.33;;;;;22.40;46.93;101469.84;5013863;28;45420;-66
2023/05/21 08:57:12;;;;;;;;;15.00;14.33;;;;;22.31;47.19;101469.53;5013140;28;47567;-67
2023/05/21 08:59:42;;;;;;;;;11.00;11.00;;;;;22.24;47.63;101474.41;5013502;27;45392;-68
2023/05/21 09:02:11;;;;;;;;;14.67;14.33;;;;;22.18;47.39;101464.88;5013351;28;45339;-67
2023/05/21 09:04:38;;;;;;;;;16.67;14.00;;;;;22.10;46.60;101464.47;5013549;27;45505;-67
2023/05/21 09:07:05;;;;;;;;;11.00;11.00;;;;;22.05;46.87;101470.13;5013402;27;46934;-66
2023/05/21 09:09:33;;;;;;;;;14.33;11.00;;;;;22.05;46.76;101445.13;5013203;28;45229;-66
2023/05/21 09:11:58;;;;;;;;;15.67;12.33;;;;;22.24;46.57;101464.50;5015785;28;45450;-67
2023/05/21 09:14:25;;;;;;;;;17.33;12.33;;;;;22.29;47.00;101464.22;5097008;27;45462;-68
2023/05/21 09:16:50;;;;;;;;;15.00;13.67;;;;;22.31;46.72;101469.53;5036050;28;45566;-67
2023/05/21 09:19:16;;;;;;;;;20.33;12.00;;;;;22.35;46.39;101461.22;5036091;28;45408;-67
2023/05/21 09:21:41;;;;;;;;;15.00;15.00;;;;;22.43;45.84;101458.06;5036057;28;45356;-67
2023/05/21 09:24:08;;;;;;;;;17.33;15.33;;;;;22.49;46.17;101448.78;5036013;28;45644;-67
2023/05/21 09:26:34;;;;;;;;;12.33;12.33;;;;;22.60;46.46;101460.56;5035675;28;46694;-68
2023/05/21 09:29:00;;;;;;;;;13.00;11.00;;;;;22.64;46.19;101457.69;5035764;28;45730;-67
2023/05/21 09:31:26;;;;;;;;;14.67;12.33;;;;;22.88;45.79;101463.34;5036109;28;45356;-67
2023/05/21 09:33:52;;;;;;;;;13.33;13.33;;;;;22.89;45.63;101452.50;5035693;28;45444;-67
2023/05/21 09:36:19;;;;;;;;;15.67;15.33;;;;;22.94;45.49;101452.19;5035738;28;45941;-67
2023/05/21 09:38:45;;;;;;;;;13.00;13.00;;;;;22.85;45.15;101448.28;5035861;28;45439;-68
2023/05/21 09:41:10;;;;;;;;;14.67;13.67;;;;;22.73;45.93;101435.66;5035708;27;45402;-66
2023/05/21 09:43:36;;;;;;;;;19.00;14.67;;;;;22.92;45.80;101446.09;5036196;28;45379;-66
2023/05/21 09:46:01;;;;;;;;;17.33;15.33;;;;;22.72;45.38;101407.91;5034949;28;46795;-66
2023/05/21 09:48:33;;;;;;;;;13.00;13.00;;;;;22.99;45.53;101446.53;5035850;28;45455;-68
2023/05/21 09:51:13;;;;;;;;;12.33;12.33;;;;;23.07;45.76;101431.66;5035907;28;45287;-68
2023/05/21 09:53:48;;;;;;;;;18.67;16.67;;;;;23.33;45.74;101429.13;5036048;28;45346;-67
2023/05/21 09:56:14;;;;;;;;;18.33;14.33;;;;;23.26;45.26;101415.22;5035278;28;45300;-68
2023/05/21 09:58:39;;;;;;;;;17.67;16.67;;;;;23.30;44.88;101418.59;5035297;28;45453;-67
2023/05/21 10:01:06;;;;;;;;;16.33;16.33;;;;;23.35;44.98;101440.63;5035801;28;45358;-68
2023/05/21 10:03:35;;;;;;;;;18.33;18.33;;;;;23.24;44.88;101422.53;5035402;28;45458;-66
2023/05/21 10:06:02;;;;;;;;;19.33;19.33;;;;;23.35;44.52;101423.66;5035687;28;46358;-68
2023/05/21 10:08:32;;;;;;;;;23.00;18.00;;;;;23.44;44.93;101429.28;5035419;28;45348;-67
2023/05/21 10:10:58;;;;;;;;;19.00;16.67;;;;;23.41;44.70;101420.53;5035019;28;45322;-66
2023/05/21 10:13:23;;;;;;;;;21.67;16.00;;;;;23.28;44.50;101390.97;5035848;28;45338;-67
2023/05/21 10:15:58;;;;;;;;;16.67;14.67;;;;;23.43;45.18;101424.00;5035534;28;46073;-67
2023/05/21 10:18:24;;;;;;;;;19.33;18.33;;;;;23.33;45.07;101428.28;5035569;28;45415;-70
2023/05/21 10:20:50;;;;;;;;;20.00;17.67;;;;;23.29;45.49;101425.78;5035180;28;45444;-70
2023/05/21 10:23:17;;;;;;;;;17.67;17.67;;;;;23.10;45.81;101392.97;5035287;28;45259;-69
2023/05/21 10:25:44;;;;;;;;;19.00;16.33;;;;;22.94;45.49;101399.34;5035271;28;45371;-67
2023/05/21 10:28:10;;;;;;;;;20.33;17.33;;;;;22.99;46.05;101408.94;5035257;28;45368;-69
2023/05/21 10:30:36;;;;;;;;;17.00;15.67;;;;;22.90;46.51;101413.06;5035457;28;45395;-69
2023/05/21 10:33:03;;;;;;;;;14.00;13.33;;;;;22.77;45.95;101421.94;5031659;28;45514;-67
2023/05/21 10:35:28;;;;;;;;;18.00;15.67;;;;;22.74;46.49;101424.81;5014995;28;46366;-63
2023/05/21 10:37:56;;;;;;;;;19.00;18.00;;;;;22.70;46.64;101414.34;5015276;28;45249;-63
2023/05/21 10:40:21;;;;;;;;;16.33;15.67;;;;;22.71;46.09;101402.66;5015523;28;45346;-63
2023/05/21 10:43:02;;;;;;;;;17.67;16.00;;;;;22.78;46.58;101417.41;5015404;28;45346;-64
2023/05/21 10:46:07;;;;;;;;;14.33;14.33;;;;;22.82;46.87;101410.88;5017082;27;46370;-65
2023/05/21 10:48:39;;;;;;;;;14.00;14.00;;;;;22.82;46.86;101405.53;5114979;27;45354;-64
2023/05/21 10:51:29;;;;;;;;;18.67;15.67;;;;;22.85;47.03;101401.78;5119337;27;45355;-64
2023/05/21 10:54:13;;;;;;;;;18.67;15.67;;;;;22.74;47.08;101399.75;5119668;27;45344;-64
2023/05/21 10:56:45;;;;;;;;;14.67;12.67;;;;;22.67;47.03;101393.94;5119147;27;46023;-64
2023/05/21 10:59:41;;;;;;;;;16.33;14.67;;;;;22.54;47.35;101401.91;5119361;27;45675;-64
2023/05/21 11:02:08;;;;;;;;;16.67;15.33;;;;;22.29;47.48;101364.09;5015634;28;45531;-64
2023/05/21 11:04:38;;;;;;;;;18.67;18.67;;;;;22.34;47.78;101387.03;5015734;28;45543;-64
2023/05/21 11:07:04;;;;;;;;;26.00;22.67;;;;;22.30;48.06;101395.34;5015537;28;45502;-63
2023/05/21 11:09:30;;;;;;;;;22.00;16.00;;;;;22.14;48.20;101390.91;5015728;28;45470;-62